createdAt,value
2023-08-14T00:01:30.907Z,20.68
2023-08-14T00:03:59.950Z,20.69
2023-08-14T00:06:27.616Z,20.70
2023-08-14T00:08:55.205Z,20.58
2023-08-14T00:11:22.820Z,20.46
2023-08-14T00:13:51.831Z,20.33
2023-08-14T00:16:19.509Z,20.24
2023-08-14T00:18:47.237Z,20.20
2023-08-14T00:21:17.035Z,20.23
2023-08-14T00:23:44.773Z,20.19
2023-08-14T00:26:12.758Z,20.22
2023-08-14T00:28:40.611Z,20.21
2023-08-14T00:31:09.235Z,20.16
2023-08-14T00:33:36.952Z,20.24
2023-08-14T00:36:06.701Z,20.25
2023-08-14T00:38:35.885Z,20.15
2023-08-14T00:41:04.491Z,20.08
2023-08-14T00:43:32.195Z,20.04
2023-08-14T00:46:00.112Z,20.16
2023-08-14T00:48:28.088Z,20.04
2023-08-14T00:50:56.544Z,20.20
2023-08-14T00:53:25.172Z,20.15
2023-08-14T00:55:54.530Z,20.15
2023-08-14T00:58:22.351Z,20.15
2023-08-14T01:00:50.141Z,19.95
2023-08-14T01:03:18.833Z,19.93
2023-08-14T01:05:46.985Z,19.72
2023-08-14T01:08:14.607Z,19.77
2023-08-14T01:10:51.969Z,19.77
2023-08-14T01:13:28.195Z,19.75
2023-08-14T01:15:57.860Z,19.85
2023-08-14T01:18:26.626Z,19.86
2023-08-14T01:21:13.176Z,19.92
2023-08-14T01:23:54.759Z,19.69
2023-08-14T01:26:24.517Z,19.67
2023-08-14T01:28:51.342Z,19.62
2023-08-14T01:31:18.950Z,19.55
2023-08-14T01:33:46.806Z,19.30
2023-08-14T01:36:18.490Z,19.32
2023-08-14T01:38:55.981Z,19.41
2023-08-14T01:41:28.165Z,19.43
2023-08-14T01:43:58.249Z,19.47
2023-08-14T01:46:26.512Z,19.55
2023-08-14T01:48:54.946Z,19.54
2023-08-14T01:51:23.214Z,19.40
2023-08-14T01:53:50.937Z,19.29
2023-08-14T01:56:18.661Z,19.25
2023-08-14T01:58:47.582Z,19.10
2023-08-14T02:01:15.231Z,19.22
2023-08-14T02:03:42.965Z,19.26
2023-08-14T02:06:10.670Z,19.27
2023-08-14T02:08:39.288Z,19.30
2023-08-14T02:11:10.386Z,19.32
2023-08-14T02:13:38.524Z,19.28
2023-08-14T02:16:07.848Z,19.26
2023-08-14T02:18:35.479Z,19.23
2023-08-14T02:21:03.091Z,19.08
2023-08-14T02:23:30.706Z,18.93
2023-08-14T02:25:58.356Z,18.95
2023-08-14T02:28:26.275Z,18.95
2023-08-14T02:30:54.528Z,18.92
2023-08-14T02:33:23.470Z,18.83
2023-08-14T02:35:51.143Z,18.76
2023-08-14T02:38:18.722Z,18.95
2023-08-14T02:40:46.370Z,18.96
2023-08-14T02:43:14.135Z,18.97
2023-08-14T02:45:41.805Z,18.96
2023-08-14T02:48:12.136Z,18.90
2023-08-14T02:50:41.559Z,19.06
2023-08-14T02:53:09.191Z,18.98
2023-08-14T02:55:36.841Z,19.05
2023-08-14T02:58:04.870Z,18.93
2023-08-14T03:00:32.589Z,18.85
2023-08-14T03:03:00.407Z,18.78
2023-08-14T03:05:28.336Z,18.81
2023-08-14T03:07:57.291Z,18.79
2023-08-14T03:10:26.809Z,18.80
2023-08-14T03:12:54.489Z,18.91
2023-08-14T03:15:22.134Z,18.86
2023-08-14T03:17:50.172Z,18.95
2023-08-14T03:20:17.956Z,18.82
2023-08-14T03:22:46.821Z,18.72
2023-08-14T03:25:15.809Z,18.70
2023-08-14T03:27:43.482Z,18.80
2023-08-14T03:30:13.768Z,18.78
2023-08-14T03:32:41.684Z,18.81
2023-08-14T03:35:09.500Z,18.87
2023-08-14T03:37:37.208Z,18.87
2023-08-14T03:40:06.145Z,18.80
2023-08-14T03:42:35.754Z,18.64
2023-08-14T03:45:05.230Z,18.61
2023-08-14T03:47:32.878Z,18.72
2023-08-14T03:50:00.483Z,18.80
2023-08-14T03:52:28.548Z,18.82
2023-08-14T03:54:56.301Z,18.84
2023-08-14T03:57:23.979Z,18.93
2023-08-14T03:59:54.175Z,19.05
2023-08-14T04:02:22.180Z,19.02
2023-08-14T04:04:49.879Z,19.08
2023-08-14T04:07:17.557Z,19.14
2023-08-14T04:09:45.176Z,19.19
2023-08-14T04:12:12.848Z,19.24
2023-08-14T04:14:40.458Z,19.30
2023-08-14T04:17:09.509Z,19.30
2023-08-14T04:19:37.176Z,19.28
2023-08-14T04:22:05.241Z,19.24
2023-08-14T04:24:32.913Z,19.25
2023-08-14T04:27:01.108Z,19.19
2023-08-14T04:29:28.782Z,19.12
2023-08-14T04:31:56.689Z,19.13
2023-08-14T04:34:25.833Z,19.22
2023-08-14T04:36:55.401Z,19.26
2023-08-14T04:39:23.048Z,19.04
2023-08-14T04:41:50.653Z,19.17
2023-08-14T04:44:18.332Z,19.28
2023-08-14T04:46:58.929Z,19.33
2023-08-14T04:49:31.160Z,19.33
2023-08-14T04:51:59.185Z,19.33
2023-08-14T04:54:27.544Z,19.37
2023-08-14T04:56:55.196Z,19.30
2023-08-14T04:59:22.866Z,19.17
2023-08-14T05:01:50.634Z,19.06
2023-08-14T05:04:20.407Z,19.10
2023-08-14T05:06:49.967Z,19.16
2023-08-14T05:09:26.427Z,19.19
2023-08-14T05:11:55.209Z,19.18
2023-08-14T05:14:23.021Z,19.18
2023-08-14T05:16:52.108Z,19.20
2023-08-14T05:19:19.789Z,19.21
2023-08-14T05:21:47.522Z,19.15
2023-08-14T05:24:17.445Z,19.16
2023-08-14T05:26:45.112Z,19.15
2023-08-14T05:29:12.765Z,19.14
2023-08-14T05:31:40.419Z,19.11
2023-08-14T05:34:08.075Z,19.14
2023-08-14T05:36:35.718Z,19.26
2023-08-14T05:39:03.607Z,19.27
2023-08-14T05:41:32.541Z,19.30
2023-08-14T05:44:00.141Z,19.36
2023-08-14T05:46:27.753Z,19.43
2023-08-14T05:48:55.433Z,19.53
2023-08-14T05:51:23.199Z,19.56
2023-08-14T05:53:50.765Z,19.52
2023-08-14T05:56:18.421Z,19.49
2023-08-14T05:58:47.385Z,19.53
2023-08-14T06:01:15.765Z,19.59
2023-08-14T06:03:45.385Z,19.65
2023-08-14T06:06:13.751Z,19.73
2023-08-14T06:08:41.380Z,19.82
2023-08-14T06:11:09.017Z,19.92
2023-08-14T06:13:36.660Z,19.99
2023-08-14T06:16:05.928Z,20.03
2023-08-14T06:18:33.777Z,20.14
2023-08-14T06:21:01.420Z,20.27
2023-08-14T06:23:29.134Z,20.39
2023-08-14T06:25:56.739Z,20.51
2023-08-14T06:28:24.488Z,20.60
2023-08-14T06:30:52.133Z,20.76
2023-08-14T06:33:21.107Z,20.92
2023-08-14T06:35:48.721Z,20.99
2023-08-14T06:38:16.301Z,21.11
2023-08-14T06:40:43.940Z,21.22
2023-08-14T06:43:11.553Z,21.32
2023-08-14T06:45:39.156Z,21.42
2023-08-14T06:48:07.882Z,21.48
2023-08-14T06:50:36.832Z,21.52
2023-08-14T06:53:04.700Z,21.61
2023-08-14T06:55:32.314Z,21.68
2023-08-14T06:57:59.946Z,21.71
2023-08-14T07:00:27.582Z,21.73
2023-08-14T07:02:55.360Z,21.72
2023-08-14T07:05:23.139Z,21.75
2023-08-14T07:07:52.180Z,21.83
2023-08-14T07:10:20.246Z,21.91
2023-08-14T07:12:49.498Z,22.02
2023-08-14T07:15:17.230Z,22.17
2023-08-14T07:17:44.957Z,22.27
2023-08-14T07:20:14.755Z,22.43
2023-08-14T07:22:43.181Z,22.55
2023-08-14T07:25:12.917Z,22.77
2023-08-14T07:27:40.524Z,22.92
2023-08-14T07:30:10.880Z,23.10
2023-08-14T07:32:38.626Z,23.29
2023-08-14T07:35:07.205Z,23.54
2023-08-14T07:37:34.875Z,23.76
2023-08-14T07:40:02.598Z,23.94
2023-08-14T07:42:31.619Z,24.02
2023-08-14T07:44:59.228Z,24.18
2023-08-14T07:47:27.045Z,24.38
2023-08-14T07:49:54.689Z,24.71
2023-08-14T07:52:22.282Z,24.78
2023-08-14T07:54:49.922Z,24.73
2023-08-14T07:57:17.626Z,24.57
2023-08-14T07:59:46.590Z,24.50
2023-08-14T08:02:14.193Z,24.51
2023-08-14T08:04:42.155Z,24.47
2023-08-14T08:07:11.130Z,24.41
2023-08-14T08:09:39.001Z,24.42
2023-08-14T08:12:07.438Z,24.42
2023-08-14T08:14:35.841Z,24.46
2023-08-14T08:17:05.249Z,24.47
2023-08-14T08:19:32.958Z,24.55
2023-08-14T08:22:00.778Z,24.59
2023-08-14T08:24:28.447Z,24.61
2023-08-14T08:26:56.082Z,24.66
2023-08-14T08:29:23.741Z,24.69
2023-08-14T08:31:51.405Z,24.77
2023-08-14T08:34:20.481Z,24.92
2023-08-14T08:36:48.262Z,25.04
2023-08-14T08:39:19.537Z,25.01
2023-08-14T08:41:48.861Z,24.93
2023-08-14T08:44:20.311Z,24.96
2023-08-14T08:46:53.541Z,25.04
2023-08-14T08:49:22.643Z,25.13
2023-08-14T08:51:50.712Z,25.14
2023-08-14T08:54:18.779Z,25.17
2023-08-14T08:56:46.941Z,25.29
2023-08-14T08:59:17.119Z,25.41
2023-08-14T09:01:44.809Z,25.52
2023-08-14T09:04:12.730Z,25.63
2023-08-14T09:06:42.110Z,25.69
2023-08-14T09:09:11.102Z,25.61
2023-08-14T09:11:38.767Z,25.55
2023-08-14T09:14:06.666Z,25.66
2023-08-14T09:16:34.733Z,25.90
2023-08-14T09:19:02.443Z,26.09
2023-08-14T09:21:30.764Z,26.34
2023-08-14T09:24:00.487Z,26.59
2023-08-14T09:26:28.136Z,26.88
2023-08-14T09:28:55.846Z,26.80
2023-08-14T09:31:23.513Z,26.78
2023-08-14T09:33:51.193Z,26.93
2023-08-14T09:36:19.198Z,27.03
2023-08-14T09:38:46.938Z,27.26
2023-08-14T09:41:16.071Z,27.48
2023-08-14T09:43:45.992Z,27.58
2023-08-14T09:46:13.929Z,27.89
2023-08-14T09:48:43.005Z,28.06
2023-08-14T09:51:14.191Z,28.07
2023-08-14T09:53:46.357Z,28.19
2023-08-14T09:56:14.457Z,28.44
2023-08-14T09:58:43.701Z,28.54
2023-08-14T10:01:14.371Z,28.54
2023-08-14T10:03:43.128Z,28.37
2023-08-14T10:06:13.716Z,28.17
2023-08-14T10:08:43.042Z,28.35
2023-08-14T10:11:19.641Z,28.48
2023-08-14T10:13:53.472Z,28.39
2023-08-14T10:16:24.668Z,28.46
2023-08-14T10:18:55.501Z,28.59
2023-08-14T10:21:26.774Z,28.72
2023-08-14T10:23:56.465Z,29.03
2023-08-14T10:26:27.380Z,29.17
2023-08-14T10:28:58.484Z,29.30
2023-08-14T10:31:27.276Z,29.27
2023-08-14T10:33:55.773Z,29.20
2023-08-14T10:36:24.099Z,29.38
2023-08-14T10:39:02.416Z,29.44
2023-08-14T10:41:35.234Z,29.61
2023-08-14T10:44:07.874Z,29.72
2023-08-14T10:46:39.199Z,29.78
2023-08-14T10:49:06.894Z,29.64
2023-08-14T10:51:35.346Z,29.81
2023-08-14T10:54:11.527Z,30.06
2023-08-14T10:56:44.222Z,30.13
2023-08-14T10:59:24.409Z,30.44
2023-08-14T11:01:53.932Z,30.39
2023-08-14T11:04:21.616Z,30.39
2023-08-14T11:07:09.636Z,30.63
2023-08-14T11:09:38.221Z,30.50
2023-08-14T11:12:07.494Z,30.39
2023-08-14T11:14:40.119Z,30.24
2023-08-14T11:17:08.262Z,30.31
2023-08-14T11:19:37.022Z,30.40
2023-08-14T11:22:04.820Z,30.47
2023-08-14T11:24:34.214Z,30.50
2023-08-14T11:27:02.487Z,30.41
2023-08-14T11:29:31.984Z,30.46
2023-08-14T11:32:02.681Z,30.05
2023-08-14T11:34:33.278Z,30.01
2023-08-14T11:39:34.038Z,30.20
2023-08-14T11:42:03.070Z,30.17
2023-08-14T11:44:30.786Z,30.04
2023-08-14T11:46:58.599Z,30.35
2023-08-14T11:49:29.481Z,30.60
2023-08-14T11:51:57.169Z,30.95
2023-08-14T11:54:26.745Z,31.21
2023-08-14T11:56:54.742Z,31.11
2023-08-14T11:59:22.381Z,31.02
2023-08-14T12:01:50.053Z,31.27
2023-08-14T12:04:17.833Z,31.46
2023-08-14T12:06:46.828Z,31.62
2023-08-14T12:09:14.570Z,31.80
2023-08-14T12:11:42.283Z,31.71
2023-08-14T12:14:10.243Z,31.43
2023-08-14T12:16:40.981Z,31.35
2023-08-14T12:19:10.281Z,31.52
2023-08-14T12:21:37.949Z,31.73
2023-08-14T12:24:07.908Z,31.58
2023-08-14T12:26:41.856Z,31.72
2023-08-14T12:29:10.252Z,31.77
2023-08-14T12:31:38.018Z,31.91
2023-08-14T12:34:07.490Z,32.07
2023-08-14T12:36:35.594Z,32.29
2023-08-14T12:39:03.422Z,32.20
2023-08-14T12:41:32.523Z,32.05
2023-08-14T12:44:00.313Z,32.26
2023-08-14T12:46:28.258Z,32.16
2023-08-14T12:48:56.069Z,32.26
2023-08-14T12:51:24.352Z,32.16
2023-08-14T12:53:51.996Z,32.28
2023-08-14T12:56:19.661Z,32.20
2023-08-14T12:58:49.523Z,32.30
2023-08-14T13:01:17.882Z,32.41
2023-08-14T13:03:45.718Z,32.49
2023-08-14T13:06:13.482Z,32.30
2023-08-14T13:08:41.861Z,32.07
2023-08-14T13:11:10.123Z,31.85
2023-08-14T13:13:37.868Z,31.82
2023-08-14T13:16:07.421Z,31.74
2023-08-14T13:18:35.170Z,31.51
2023-08-14T13:21:02.988Z,31.36
2023-08-14T13:23:30.633Z,31.40
2023-08-14T13:25:58.305Z,31.29
2023-08-14T13:28:25.954Z,31.10
2023-08-14T13:30:53.612Z,31.28
2023-08-14T13:33:22.598Z,31.46
2023-08-14T13:35:51.609Z,31.58
2023-08-14T13:38:19.420Z,31.55
2023-08-14T13:40:47.189Z,31.64
2023-08-14T13:43:15.453Z,31.53
2023-08-14T13:45:44.224Z,31.53
2023-08-14T13:48:12.426Z,31.48
2023-08-14T13:50:42.949Z,31.35
2023-08-14T13:53:10.773Z,31.27
2023-08-14T13:55:38.554Z,31.28
2023-08-14T13:58:06.123Z,31.36
2023-08-14T14:00:33.849Z,31.28
2023-08-14T14:03:01.482Z,31.43
2023-08-14T14:05:29.541Z,31.50
2023-08-14T14:07:58.907Z,31.65
2023-08-14T14:10:27.438Z,31.65
2023-08-14T14:13:02.289Z,31.76
2023-08-14T14:15:31.063Z,31.57
2023-08-14T14:17:59.106Z,31.32
2023-08-14T14:20:26.908Z,31.36
2023-08-14T14:22:54.757Z,31.30
2023-08-14T14:25:23.746Z,31.47
2023-08-14T14:27:51.333Z,31.55
2023-08-14T14:30:19.141Z,31.57
2023-08-14T14:32:46.992Z,31.70
2023-08-14T14:35:15.129Z,31.71
2023-08-14T14:37:43.011Z,31.57
2023-08-14T14:40:11.982Z,31.72
2023-08-14T14:42:40.924Z,31.76
2023-08-14T14:45:12.531Z,31.76
2023-08-14T14:47:45.477Z,31.83
2023-08-14T14:50:24.104Z,31.87
2023-08-14T14:52:56.799Z,31.65
2023-08-14T14:55:24.420Z,31.55
2023-08-14T14:57:53.331Z,31.67
2023-08-14T15:00:21.090Z,31.75
2023-08-14T15:02:48.842Z,31.71
2023-08-14T15:05:27.620Z,31.66
2023-08-14T15:07:57.406Z,31.66
2023-08-14T15:10:25.279Z,31.68
2023-08-14T15:12:54.722Z,31.67
2023-08-14T15:15:22.922Z,31.66
2023-08-14T15:17:50.675Z,31.70
2023-08-14T15:20:18.504Z,31.55
2023-08-14T15:22:46.166Z,31.57
2023-08-14T15:25:14.052Z,31.61
2023-08-14T15:27:41.851Z,31.61
2023-08-14T15:30:11.832Z,31.41
2023-08-14T15:32:39.552Z,31.37
2023-08-14T15:35:08.136Z,31.41
2023-08-14T15:37:35.831Z,31.43
2023-08-14T15:40:05.162Z,31.41
2023-08-14T15:42:32.896Z,31.38
2023-08-14T15:45:01.420Z,31.31
2023-08-14T15:47:30.511Z,31.32
2023-08-14T15:49:58.367Z,31.17
2023-08-14T15:52:29.742Z,31.23
2023-08-14T15:54:58.894Z,31.17
2023-08-14T15:57:27.160Z,31.14
2023-08-14T15:59:55.177Z,31.15
2023-08-14T16:02:23.315Z,31.05
2023-08-14T16:04:52.835Z,31.01
2023-08-14T16:07:21.256Z,31.05
2023-08-14T16:09:51.089Z,31.01
2023-08-14T16:12:18.731Z,30.94
2023-08-14T16:14:46.419Z,30.98
2023-08-14T16:17:14.019Z,30.95
2023-08-14T16:19:41.676Z,30.99
2023-08-14T16:22:10.639Z,31.06
2023-08-14T16:24:40.280Z,31.07
2023-08-14T16:27:08.975Z,31.02
2023-08-14T16:29:36.573Z,30.99
2023-08-14T16:32:04.430Z,30.99
2023-08-14T16:34:32.017Z,30.96
2023-08-14T16:36:59.652Z,30.91
2023-08-14T16:39:28.603Z,30.84
2023-08-14T16:41:56.194Z,30.91
2023-08-14T16:44:23.826Z,31.28
2023-08-14T16:46:51.429Z,31.18
2023-08-14T16:49:19.007Z,31.01
2023-08-14T16:51:46.637Z,31.29
2023-08-14T16:54:14.503Z,31.09
2023-08-14T16:56:43.502Z,30.82
2023-08-14T16:59:11.336Z,30.80
2023-08-14T17:01:39.120Z,30.68
2023-08-14T17:04:07.272Z,30.65
2023-08-14T17:06:35.202Z,30.56
2023-08-14T17:09:02.920Z,30.42
2023-08-14T17:11:30.528Z,30.34
2023-08-14T17:13:59.966Z,30.23
2023-08-14T17:16:28.456Z,30.20
2023-08-14T17:18:57.182Z,30.07
2023-08-14T17:21:24.835Z,30.03
2023-08-14T17:23:52.508Z,29.99
2023-08-14T17:26:20.154Z,29.96
2023-08-14T17:28:47.861Z,29.86
2023-08-14T17:31:17.398Z,29.86
2023-08-14T17:33:45.172Z,29.87
2023-08-14T17:36:13.325Z,29.81
2023-08-14T17:38:41.241Z,29.81
2023-08-14T17:41:09.143Z,29.81
2023-08-14T17:43:36.839Z,29.82
2023-08-14T17:46:04.516Z,29.80
2023-08-14T17:48:33.557Z,29.78
2023-08-14T17:51:01.204Z,29.74
2023-08-14T17:53:28.814Z,29.65
2023-08-14T17:55:56.443Z,29.50
2023-08-14T17:58:24.615Z,29.38
2023-08-14T18:00:52.548Z,29.31
2023-08-14T18:03:20.585Z,29.27
2023-08-14T18:05:53.655Z,29.26
2023-08-14T18:08:22.162Z,29.14
2023-08-14T18:10:50.168Z,29.09
2023-08-14T18:13:17.801Z,29.10
2023-08-14T18:15:45.576Z,29.07
2023-08-14T18:18:13.222Z,28.89
2023-08-14T18:20:40.899Z,28.73
2023-08-14T18:23:10.360Z,28.61
2023-08-14T18:25:37.961Z,28.40
2023-08-14T18:28:06.490Z,28.36
2023-08-14T18:30:34.152Z,28.32
2023-08-14T18:33:02.062Z,28.29
2023-08-14T18:35:29.690Z,28.29
2023-08-14T18:37:58.850Z,28.04
2023-08-14T18:40:27.946Z,28.04
2023-08-14T18:42:55.591Z,28.02
2023-08-14T18:45:23.223Z,27.86
2023-08-14T18:47:50.888Z,27.77
2023-08-14T18:50:18.922Z,27.63
2023-08-14T18:52:47.935Z,27.41
2023-08-14T18:55:15.716Z,27.28
2023-08-14T18:57:45.043Z,27.16
2023-08-14T19:00:13.676Z,27.11
2023-08-14T19:02:41.339Z,27.08
2023-08-14T19:05:10.540Z,26.97
2023-08-14T19:07:38.726Z,27.12
2023-08-14T19:10:07.559Z,26.94
2023-08-14T19:12:35.159Z,26.93
2023-08-14T19:15:04.667Z,26.83
2023-08-14T19:17:32.334Z,26.80
2023-08-14T19:20:00.023Z,26.74
2023-08-14T19:22:27.727Z,26.76
2023-08-14T19:24:55.344Z,26.68
2023-08-14T19:27:23.126Z,26.66
2023-08-14T19:29:50.752Z,26.59
2023-08-14T19:32:19.737Z,26.51
2023-08-14T19:34:47.327Z,26.38
2023-08-14T19:37:15.757Z,26.28
2023-08-14T19:39:43.583Z,26.20
2023-08-14T19:42:11.254Z,26.29
2023-08-14T19:44:38.854Z,26.15
2023-08-14T19:47:06.618Z,26.07
2023-08-14T19:49:35.629Z,25.92
2023-08-14T19:52:03.269Z,25.84
2023-08-14T19:54:30.908Z,25.86
2023-08-14T19:56:58.575Z,25.52
2023-08-14T19:59:26.231Z,25.45
2023-08-14T20:01:53.840Z,25.63
2023-08-14T20:04:21.527Z,25.57
2023-08-14T20:06:50.595Z,25.73
2023-08-14T20:09:18.198Z,25.50
2023-08-14T20:11:45.848Z,25.44
2023-08-14T20:14:13.649Z,25.40
2023-08-14T20:16:41.341Z,25.39
2023-08-14T20:19:09.103Z,25.34
2023-08-14T20:21:36.838Z,25.23
2023-08-14T20:24:06.728Z,25.23
2023-08-14T20:26:35.257Z,25.26
2023-08-14T20:29:02.862Z,25.23
2023-08-14T20:31:30.486Z,25.28
2023-08-14T20:33:58.107Z,25.27
2023-08-14T20:36:26.551Z,25.31
2023-08-14T20:38:54.498Z,25.33
2023-08-14T20:41:23.491Z,25.35
2023-08-14T20:43:51.225Z,25.31
2023-08-14T20:46:18.859Z,25.30
2023-08-14T20:48:46.548Z,25.16
2023-08-14T20:51:14.161Z,25.14
2023-08-14T20:53:41.951Z,25.01
2023-08-14T20:56:09.618Z,24.97
2023-08-14T20:58:38.826Z,24.84
2023-08-14T21:01:06.489Z,24.62
2023-08-14T21:03:34.172Z,24.17
2023-08-14T21:06:01.907Z,24.19
2023-08-14T21:08:29.637Z,24.38
2023-08-14T21:10:57.856Z,24.28
2023-08-14T21:13:25.515Z,24.45
2023-08-14T21:15:57.978Z,24.18
2023-08-14T21:18:25.786Z,24.07
2023-08-14T21:20:53.411Z,23.94
2023-08-14T21:23:21.036Z,23.95
2023-08-14T21:25:48.669Z,24.00
2023-08-14T21:28:16.412Z,23.90
2023-08-14T21:30:44.085Z,23.79
2023-08-14T21:33:13.031Z,23.79
2023-08-14T21:35:40.699Z,23.72
2023-08-14T21:38:08.264Z,23.79
2023-08-14T21:40:36.180Z,23.83
2023-08-14T21:43:05.793Z,23.78
2023-08-14T21:45:33.796Z,23.82
2023-08-14T21:48:02.194Z,23.85
2023-08-14T21:50:31.172Z,23.87
2023-08-14T21:52:58.849Z,23.90
2023-08-14T21:55:26.427Z,23.91
2023-08-14T21:57:54.020Z,23.91
2023-08-14T22:00:21.640Z,23.79
2023-08-14T22:02:49.609Z,23.74
2023-08-14T22:05:17.557Z,23.67
2023-08-14T22:07:46.493Z,23.64
2023-08-14T22:10:14.130Z,23.54
2023-08-14T22:12:45.306Z,23.58
2023-08-14T22:15:13.423Z,23.41
2023-08-14T22:17:41.074Z,23.39
2023-08-14T22:20:11.071Z,23.41
2023-08-14T22:22:38.707Z,23.43
2023-08-14T22:25:08.574Z,23.39
2023-08-14T22:27:36.304Z,23.43
2023-08-14T22:30:04.157Z,23.46
2023-08-14T22:32:31.853Z,23.53
2023-08-14T22:34:59.469Z,23.61
2023-08-14T22:37:27.053Z,23.64
2023-08-14T22:39:54.649Z,23.68
2023-08-14T22:42:23.955Z,23.73
2023-08-14T22:44:51.577Z,23.77
2023-08-14T22:47:19.528Z,23.78
2023-08-14T22:49:47.499Z,23.73
2023-08-14T22:52:15.161Z,23.68
2023-08-14T22:54:42.756Z,23.63
2023-08-14T22:57:10.945Z,23.54
2023-08-14T22:59:39.892Z,23.51
2023-08-14T23:02:07.529Z,23.54
2023-08-14T23:04:35.158Z,23.54
2023-08-14T23:07:02.775Z,23.48
2023-08-14T23:09:30.381Z,23.30
2023-08-14T23:11:58.010Z,23.26
2023-08-14T23:14:25.616Z,23.33
2023-08-14T23:16:54.654Z,23.32
2023-08-14T23:19:22.865Z,23.34
2023-08-14T23:21:50.491Z,23.33
2023-08-14T23:24:18.118Z,23.30
2023-08-14T23:26:45.994Z,23.26
2023-08-14T23:29:14.016Z,23.19
2023-08-14T23:31:41.639Z,23.20
2023-08-14T23:34:10.544Z,23.24
2023-08-14T23:36:38.123Z,23.20
2023-08-14T23:39:06.138Z,23.18
2023-08-14T23:41:34.175Z,23.15
2023-08-14T23:44:01.979Z,23.10
2023-08-14T23:46:29.678Z,23.11
2023-08-14T23:48:57.363Z,23.10
2023-08-14T23:51:26.997Z,23.04
2023-08-14T23:53:54.730Z,23.02
2023-08-14T23:56:22.336Z,22.98
2023-08-14T23:58:49.957Z,22.96
